Time;durP1;ratioP1;P1;durP2;ratioP2;P2;SDS_P1;SDS_P2;PMS_P1;PMS_P2;Temp;Humidity;BMP_temperature;BMP_pressure;BME280_temperature;BME280_humidity;BME280_pressure;Samples;Min_cycle;Max_cycle;Signal;HPM_P1;HPM_P2
2023/12/03 00:00:09;;;;;;;38.58;18.02;;;;;;;;;;5146530;27;20047;-75
2023/12/03 00:02:36;;;;;;;43.42;18.67;;;;;;;;;;5147287;27;20146;-74
2023/12/03 00:05:03;;;;;;;39.85;19.13;;;;;;;;;;5146802;27;20120;-75
2023/12/03 00:07:30;;;;;;;38.65;17.88;;;;;;;;;;5147152;27;20096;-75
2023/12/03 00:09:57;;;;;;;37.03;17.45;;;;;;;;;;5145229;27;20052;-74
2023/12/03 00:12:23;;;;;;;45.30;17.25;;;;;;;;;;5146711;27;20047;-76
2023/12/03 00:14:49;;;;;;;41.85;18.02;;;;;;;;;;5146503;27;20047;-75
2023/12/03 00:17:16;;;;;;;42.42;18.20;;;;;;;;;;5146813;27;20051;-75
2023/12/03 00:19:43;;;;;;;45.05;20.45;;;;;;;;;;5146131;27;20043;-75
2023/12/03 00:22:09;;;;;;;48.22;18.60;;;;;;;;;;5147079;27;20059;-74
2023/12/03 00:24:35;;;;;;;42.15;17.63;;;;;;;;;;5146841;27;20055;-74
2023/12/03 00:27:02;;;;;;;41.08;19.33;;;;;;;;;;5147185;27;20058;-75
2023/12/03 00:29:29;;;;;;;40.60;17.13;;;;;;;;;;5145793;27;20104;-75
2023/12/03 00:31:55;;;;;;;47.92;18.52;;;;;;;;;;5146509;27;20534;-75
2023/12/03 00:34:21;;;;;;;42.30;18.02;;;;;;;;;;5147057;27;20057;-74
2023/12/03 00:36:48;;;;;;;39.72;18.92;;;;;;;;;;5146028;27;20055;-74
2023/12/03 00:39:15;;;;;;;48.33;20.75;;;;;;;;;;5146106;27;20052;-74
2023/12/03 00:41:41;;;;;;;45.38;19.33;;;;;;;;;;5146133;27;20504;-75
2023/12/03 00:44:08;;;;;;;47.90;18.52;;;;;;;;;;5145927;27;20055;-75
2023/12/03 00:46:34;;;;;;;43.97;19.05;;;;;;;;;;5146935;27;20044;-75
2023/12/03 00:49:01;;;;;;;44.40;19.92;;;;;;;;;;5146364;27;20051;-74
2023/12/03 00:51:27;;;;;;;45.00;20.33;;;;;;;;;;5146409;27;20051;-75
2023/12/03 00:53:54;;;;;;;40.45;19.95;;;;;;;;;;5146910;27;20055;-75
2023/12/03 00:56:20;;;;;;;42.50;18.48;;;;;;;;;;5146186;27;20541;-75
2023/12/03 00:58:46;;;;;;;48.05;20.05;;;;;;;;;;5146504;27;20264;-74
2023/12/03 01:01:13;;;;;;;47.13;20.08;;;;;;;;;;5147359;27;20734;-74
2023/12/03 01:03:39;;;;;;;46.45;20.67;;;;;;;;;;5149040;27;20055;-75
2023/12/03 01:06:06;;;;;;;44.50;18.63;;;;;;;;;;5148614;27;20089;-74
2023/12/03 01:08:32;;;;;;;45.60;18.85;;;;;;;;;;5147008;27;20567;-74
2023/12/03 01:10:58;;;;;;;43.30;18.35;;;;;;;;;;5146429;27;20051;-75
2023/12/03 01:13:25;;;;;;;45.75;20.40;;;;;;;;;;5146019;27;20816;-74
2023/12/03 01:15:51;;;;;;;48.25;20.27;;;;;;;;;;5146182;27;20492;-74
2023/12/03 01:18:18;;;;;;;40.80;18.10;;;;;;;;;;5146018;27;20047;-75
2023/12/03 01:20:44;;;;;;;45.90;18.30;;;;;;;;;;5145881;27;20054;-74
2023/12/03 01:23:10;;;;;;;42.80;19.60;;;;;;;;;;5149883;27;20055;-74
2023/12/03 01:25:37;;;;;;;44.80;18.05;;;;;;;;;;5148566;27;20100;-75
2023/12/03 01:28:03;;;;;;;39.80;18.40;;;;;;;;;;5149685;27;20063;-74
2023/12/03 01:30:30;;;;;;;45.10;19.08;;;;;;;;;;5149940;27;20062;-75
2023/12/03 01:32:56;;;;;;;49.45;19.75;;;;;;;;;;5149401;27;20058;-75
2023/12/03 01:35:23;;;;;;;42.35;18.05;;;;;;;;;;5149431;27;20137;-74
2023/12/03 01:37:49;;;;;;;46.63;19.88;;;;;;;;;;5147630;27;20587;-74
2023/12/03 01:40:15;;;;;;;48.47;18.38;;;;;;;;;;5148675;27;20109;-74
2023/12/03 01:42:42;;;;;;;51.42;20.33;;;;;;;;;;5149045;27;20620;-74
2023/12/03 01:45:08;;;;;;;53.90;19.85;;;;;;;;;;5149906;27;20043;-75
2023/12/03 01:47:35;;;;;;;53.05;20.02;;;;;;;;;;5149414;27;20496;-74
2023/12/03 01:50:05;;;;;;;51.78;21.83;;;;;;;;;;5149864;27;20047;-74
2023/12/03 01:52:32;;;;;;;41.97;19.08;;;;;;;;;;5149004;27;20110;-75
2023/12/03 01:54:58;;;;;;;50.67;20.55;;;;;;;;;;5148883;27;20051;-74
2023/12/03 01:57:26;;;;;;;44.60;20.02;;;;;;;;;;5148827;27;20512;-74
2023/12/03 01:59:53;;;;;;;43.85;19.50;;;;;;;;;;5149476;27;20058;-75
2023/12/03 02:02:19;;;;;;;46.90;20.25;;;;;;;;;;5149382;27;20694;-74
2023/12/03 02:04:45;;;;;;;48.60;20.35;;;;;;;;;;5148858;27;20405;-75
2023/12/03 02:07:12;;;;;;;50.55;20.33;;;;;;;;;;5148847;27;20050;-75
2023/12/03 02:09:39;;;;;;;48.17;20.27;;;;;;;;;;5148712;27;20083;-75
2023/12/03 02:12:05;;;;;;;49.90;20.83;;;;;;;;;;5149417;27;20470;-74
2023/12/03 02:14:31;;;;;;;47.85;19.33;;;;;;;;;;5148212;27;20171;-74
2023/12/03 02:16:58;;;;;;;45.70;21.08;;;;;;;;;;5148956;27;20043;-75
2023/12/03 02:19:24;;;;;;;51.55;19.92;;;;;;;;;;5149132;27;20100;-75
2023/12/03 02:21:50;;;;;;;46.92;20.50;;;;;;;;;;5149397;27;20051;-75
2023/12/03 02:24:17;;;;;;;42.40;19.10;;;;;;;;;;5151563;27;20837;-75
2023/12/03 02:26:43;;;;;;;40.47;19.98;;;;;;;;;;5150584;27;20468;-74
2023/12/03 02:29:09;;;;;;;39.08;19.20;;;;;;;;;;5149259;27;20074;-74
2023/12/03 02:31:36;;;;;;;44.97;19.70;;;;;;;;;;5148551;27;20071;-75
2023/12/03 02:34:07;;;;;;;45.60;18.90;;;;;;;;;;5147691;27;20131;-74
2023/12/03 02:36:34;;;;;;;43.80;19.30;;;;;;;;;;5147980;27;20055;-75
2023/12/03 02:39:01;;;;;;;51.42;21.13;;;;;;;;;;5147991;27;20059;-75
2023/12/03 02:41:27;;;;;;;48.53;22.63;;;;;;;;;;5148346;27;20134;-75
2023/12/03 02:43:53;;;;;;;55.92;21.13;;;;;;;;;;5147275;27;20163;-73
2023/12/03 02:46:19;;;;;;;56.33;22.55;;;;;;;;;;5148491;27;20078;-74
2023/12/03 02:48:46;;;;;;;48.80;21.20;;;;;;;;;;5148187;27;20108;-74
2023/12/03 02:51:12;;;;;;;45.47;20.92;;;;;;;;;;5148100;27;20047;-74
2023/12/03 02:53:39;;;;;;;48.75;21.33;;;;;;;;;;5147518;27;20047;-74
2023/12/03 02:56:06;;;;;;;51.45;21.98;;;;;;;;;;5148898;27;20612;-74
2023/12/03 02:58:33;;;;;;;48.38;20.13;;;;;;;;;;5148197;27;20054;-74
2023/12/03 03:00:59;;;;;;;49.45;21.42;;;;;;;;;;5148431;27;20054;-74
2023/12/03 03:03:25;;;;;;;54.50;21.67;;;;;;;;;;5147749;27;20448;-74
2023/12/03 03:05:52;;;;;;;51.22;22.63;;;;;;;;;;5148324;27;20126;-74
2023/12/03 03:08:19;;;;;;;45.33;20.65;;;;;;;;;;5125978;27;20085;-74
2023/12/03 03:10:45;;;;;;;52.30;22.40;;;;;;;;;;5128492;27;20051;-74
2023/12/03 03:13:11;;;;;;;51.88;23.02;;;;;;;;;;5147685;27;20091;-74
2023/12/03 03:15:38;;;;;;;56.08;23.02;;;;;;;;;;5148050;27;20638;-75
2023/12/03 03:18:05;;;;;;;55.28;23.88;;;;;;;;;;5148101;27;20043;-74
2023/12/03 03:20:31;;;;;;;56.05;22.83;;;;;;;;;;5147736;27;20753;-74
2023/12/03 03:22:57;;;;;;;63.08;25.33;;;;;;;;;;5147272;27;20050;-74
2023/12/03 03:25:24;;;;;;;57.17;25.33;;;;;;;;;;5147816;27;20054;-74
2023/12/03 03:27:50;;;;;;;55.72;24.30;;;;;;;;;;5148143;27;20136;-74
2023/12/03 03:30:16;;;;;;;52.33;24.05;;;;;;;;;;5147558;27;20047;-74
2023/12/03 03:32:43;;;;;;;53.28;25.08;;;;;;;;;;5146832;27;20688;-74
2023/12/03 03:35:09;;;;;;;46.60;22.92;;;;;;;;;;5147329;27;20058;-74
2023/12/03 03:37:36;;;;;;;53.53;23.55;;;;;;;;;;5146460;27;20056;-75
2023/12/03 03:40:02;;;;;;;45.60;22.00;;;;;;;;;;5148159;27;20123;-74
2023/12/03 03:42:29;;;;;;;48.45;21.95;;;;;;;;;;5146233;27;20143;-74
2023/12/03 03:44:55;;;;;;;42.25;22.90;;;;;;;;;;5147071;27;20412;-75
2023/12/03 03:47:21;;;;;;;39.80;22.58;;;;;;;;;;5147752;27;20051;-74
2023/12/03 03:49:48;;;;;;;44.17;23.42;;;;;;;;;;5147604;27;20097;-74
2023/12/03 03:52:14;;;;;;;43.90;24.27;;;;;;;;;;5146960;27;20141;-74
2023/12/03 03:54:41;;;;;;;39.83;23.05;;;;;;;;;;5147027;27;20055;-74
2023/12/03 03:57:07;;;;;;;44.33;24.50;;;;;;;;;;5147491;27;20051;-74
2023/12/03 03:59:34;;;;;;;47.67;26.25;;;;;;;;;;5147792;27;20051;-74
2023/12/03 04:02:00;;;;;;;43.95;26.13;;;;;;;;;;5147412;27;20051;-74
2023/12/03 04:04:27;;;;;;;46.88;26.70;;;;;;;;;;5146884;27;20055;-74
2023/12/03 04:06:53;;;;;;;42.83;26.02;;;;;;;;;;5147412;27;20058;-74
2023/12/03 04:09:19;;;;;;;45.15;28.25;;;;;;;;;;5148029;27;20475;-75
2023/12/03 04:11:46;;;;;;;44.50;26.92;;;;;;;;;;5148193;27;20086;-74
2023/12/03 04:14:16;;;;;;;46.65;27.13;;;;;;;;;;5149220;27;20203;-74
2023/12/03 04:16:43;;;;;;;43.50;26.92;;;;;;;;;;5148629;27;20373;-74
2023/12/03 04:19:10;;;;;;;48.40;28.05;;;;;;;;;;5147204;27;20145;-74
2023/12/03 04:21:38;;;;;;;44.80;27.13;;;;;;;;;;5146731;27;20086;-74
2023/12/03 04:24:05;;;;;;;46.55;27.75;;;;;;;;;;5146643;27;20081;-74
2023/12/03 04:26:31;;;;;;;41.92;26.27;;;;;;;;;;5147020;27;20047;-74
2023/12/03 04:28:57;;;;;;;42.88;25.80;;;;;;;;;;5146941;27;20058;-74
2023/12/03 04:31:27;;;;;;;39.60;25.20;;;;;;;;;;5146735;27;20506;-74
2023/12/03 04:33:55;;;;;;;40.33;25.05;;;;;;;;;;5146808;27;20131;-74
2023/12/03 04:36:26;;;;;;;37.42;23.80;;;;;;;;;;5146476;27;20502;-74
2023/12/03 04:38:53;;;;;;;35.25;24.65;;;;;;;;;;5146810;27;20055;-74
2023/12/03 04:41:20;;;;;;;38.00;23.70;;;;;;;;;;5146941;27;20079;-74
2023/12/03 04:43:46;;;;;;;39.35;24.30;;;;;;;;;;5147170;27;20039;-74
2023/12/03 04:46:13;;;;;;;41.33;24.80;;;;;;;;;;5146447;27;20424;-74
2023/12/03 04:48:40;;;;;;;41.55;23.90;;;;;;;;;;5145469;27;20100;-74
2023/12/03 04:51:06;;;;;;;35.67;22.80;;;;;;;;;;5146486;27;20484;-74
2023/12/03 04:53:33;;;;;;;38.50;23.70;;;;;;;;;;5146014;27;20051;-74
2023/12/03 04:55:59;;;;;;;36.08;22.30;;;;;;;;;;5145579;27;20048;-74
2023/12/03 04:58:26;;;;;;;39.70;23.13;;;;;;;;;;5146252;27;20083;-75
2023/12/03 05:00:55;;;;;;;33.67;20.58;;;;;;;;;;5147105;27;20057;-74
2023/12/03 05:03:21;;;;;;;36.45;20.13;;;;;;;;;;5146485;27;20051;-74
2023/12/03 05:05:48;;;;;;;31.65;19.45;;;;;;;;;;5146457;27;20420;-73
2023/12/03 05:08:14;;;;;;;34.88;19.83;;;;;;;;;;5146195;27;20083;-74
2023/12/03 05:10:41;;;;;;;30.55;18.85;;;;;;;;;;5145909;27;20573;-74
2023/12/03 05:13:07;;;;;;;31.30;20.60;;;;;;;;;;5146240;27;20055;-74
2023/12/03 05:15:34;;;;;;;31.38;20.60;;;;;;;;;;5146005;27;20043;-74
2023/12/03 05:18:00;;;;;;;35.88;20.17;;;;;;;;;;5147853;27;20092;-74
2023/12/03 05:20:26;;;;;;;35.30;21.02;;;;;;;;;;5148042;27;20500;-74
2023/12/03 05:22:53;;;;;;;32.28;20.25;;;;;;;;;;5146134;27;20055;-74
2023/12/03 05:25:19;;;;;;;30.95;19.85;;;;;;;;;;5146335;27;20063;-74
2023/12/03 05:27:46;;;;;;;32.25;18.40;;;;;;;;;;5146320;27;20622;-74
2023/12/03 05:30:13;;;;;;;29.58;19.88;;;;;;;;;;5146343;27;20158;-73
2023/12/03 05:32:39;;;;;;;33.50;20.25;;;;;;;;;;5145598;27;20051;-74
2023/12/03 05:35:06;;;;;;;31.33;19.80;;;;;;;;;;5145757;27;20047;-74
2023/12/03 05:37:32;;;;;;;31.58;20.52;;;;;;;;;;5144687;27;20499;-74
2023/12/03 05:39:59;;;;;;;37.67;22.10;;;;;;;;;;5146265;27;20047;-75
2023/12/03 05:42:25;;;;;;;33.15;21.17;;;;;;;;;;5146064;27;20074;-74
2023/12/03 05:44:51;;;;;;;38.67;21.77;;;;;;;;;;5145953;27;20196;-73
2023/12/03 05:47:18;;;;;;;31.98;20.52;;;;;;;;;;5124937;27;20047;-73
2023/12/03 05:49:44;;;;;;;30.77;18.35;;;;;;;;;;5125267;27;20058;-73
2023/12/03 05:52:11;;;;;;;36.90;21.10;;;;;;;;;;5128106;27;20055;-74
2023/12/03 05:54:37;;;;;;;34.75;20.35;;;;;;;;;;5145771;27;20079;-73
2023/12/03 05:57:04;;;;;;;30.25;20.08;;;;;;;;;;5145701;27;20047;-74
2023/12/03 05:59:30;;;;;;;29.38;19.33;;;;;;;;;;5145502;27;20147;-74
2023/12/03 06:01:58;;;;;;;33.28;19.48;;;;;;;;;;5144877;27;20055;-74
2023/12/03 06:04:24;;;;;;;38.83;22.35;;;;;;;;;;5144076;27;20143;-74
2023/12/03 06:06:50;;;;;;;34.90;20.20;;;;;;;;;;5145419;27;20567;-74
2023/12/03 06:09:17;;;;;;;36.83;20.75;;;;;;;;;;5147974;27;20604;-74
2023/12/03 06:11:43;;;;;;;35.40;20.77;;;;;;;;;;5148791;27;20496;-73
2023/12/03 06:14:10;;;;;;;33.35;19.58;;;;;;;;;;5148973;27;20604;-73
2023/12/03 06:16:36;;;;;;;37.38;20.38;;;;;;;;;;5147907;27;20401;-74
2023/12/03 06:19:03;;;;;;;34.25;20.13;;;;;;;;;;5148026;27;20100;-74
2023/12/03 06:21:29;;;;;;;35.95;20.20;;;;;;;;;;5148691;27;20052;-74
2023/12/03 06:23:56;;;;;;;34.78;19.88;;;;;;;;;;5149046;27;20584;-74
2023/12/03 06:26:22;;;;;;;33.95;18.95;;;;;;;;;;5148744;27;20047;-74
2023/12/03 06:28:49;;;;;;;36.38;20.63;;;;;;;;;;5149068;27;20496;-74
2023/12/03 06:31:15;;;;;;;31.90;19.25;;;;;;;;;;5148872;27;20732;-74
2023/12/03 06:33:41;;;;;;;33.58;18.23;;;;;;;;;;5148254;27;20051;-74
2023/12/03 06:36:09;;;;;;;32.00;18.73;;;;;;;;;;5147722;27;20062;-74
2023/12/03 06:38:36;;;;;;;35.50;20.30;;;;;;;;;;5148201;27;20078;-74
2023/12/03 06:41:02;;;;;;;37.83;19.98;;;;;;;;;;5148588;27;20447;-74
2023/12/03 06:43:28;;;;;;;38.17;20.50;;;;;;;;;;5148414;27;20405;-73
2023/12/03 06:45:55;;;;;;;35.97;19.70;;;;;;;;;;5148405;27;20055;-74
2023/12/03 06:48:21;;;;;;;36.58;20.33;;;;;;;;;;5148339;27;20051;-74
2023/12/03 06:50:48;;;;;;;38.22;21.15;;;;;;;;;;5148490;27;20130;-74
2023/12/03 06:53:14;;;;;;;40.33;22.30;;;;;;;;;;5148696;27;20146;-74
2023/12/03 06:55:41;;;;;;;40.15;21.33;;;;;;;;;;5147835;27;20057;-74
2023/12/03 06:58:07;;;;;;;40.88;22.23;;;;;;;;;;5146771;27;20568;-73
2023/12/03 07:00:33;;;;;;;40.67;21.45;;;;;;;;;;5147628;27;20130;-74
2023/12/03 07:03:00;;;;;;;43.00;21.83;;;;;;;;;;5142951;27;20047;-73
2023/12/03 07:05:26;;;;;;;41.33;20.45;;;;;;;;;;5132936;27;20118;-73
2023/12/03 07:07:53;;;;;;;41.53;21.58;;;;;;;;;;5143640;27;20421;-74
2023/12/03 07:10:19;;;;;;;41.22;22.33;;;;;;;;;;5130216;27;20500;-73
2023/12/03 07:12:45;;;;;;;37.10;21.58;;;;;;;;;;5140751;27;20051;-73
2023/12/03 07:15:12;;;;;;;47.97;21.50;;;;;;;;;;5136654;27;20048;-73
2023/12/03 07:17:39;;;;;;;48.28;21.52;;;;;;;;;;5127863;27;20569;-73
2023/12/03 07:20:06;;;;;;;38.22;20.80;;;;;;;;;;5142093;27;20047;-74
2023/12/03 07:22:32;;;;;;;39.65;20.65;;;;;;;;;;5149723;27;20572;-73
2023/12/03 07:24:59;;;;;;;43.30;22.52;;;;;;;;;;5147503;27;20055;-74
2023/12/03 07:27:25;;;;;;;49.85;23.02;;;;;;;;;;5141536;27;20132;-73
2023/12/03 07:29:54;;;;;;;38.72;20.60;;;;;;;;;;5140848;27;20511;-73
2023/12/03 07:32:22;;;;;;;47.90;21.63;;;;;;;;;;5148142;27;20570;-73
2023/12/03 07:34:48;;;;;;;40.55;21.77;;;;;;;;;;5142645;27;20055;-73
2023/12/03 07:37:15;;;;;;;39.63;21.27;;;;;;;;;;5147619;27;20413;-73
2023/12/03 07:39:41;;;;;;;40.92;22.38;;;;;;;;;;5140979;27;20047;-73
2023/12/03 07:42:08;;;;;;;39.03;21.48;;;;;;;;;;5144688;27;20488;-73
2023/12/03 07:44:34;;;;;;;40.35;21.70;;;;;;;;;;5143519;27;20058;-73
2023/12/03 07:47:01;;;;;;;43.22;22.10;;;;;;;;;;5144404;27;20176;-73
2023/12/03 07:49:27;;;;;;;43.03;22.20;;;;;;;;;;5144970;27;20062;-74
2023/12/03 07:51:53;;;;;;;42.70;22.25;;;;;;;;;;5135184;27;20055;-73
2023/12/03 07:54:20;;;;;;;39.50;20.90;;;;;;;;;;5138220;27;20063;-74
2023/12/03 07:56:46;;;;;;;46.92;21.48;;;;;;;;;;5126428;27;20048;-74
2023/12/03 07:59:13;;;;;;;43.45;22.58;;;;;;;;;;5143162;27;20057;-73
2023/12/03 08:01:39;;;;;;;46.55;22.73;;;;;;;;;;5147076;27;20420;-73
2023/12/03 08:04:05;;;;;;;46.25;22.17;;;;;;;;;;5147004;27;20165;-73
2023/12/03 08:06:32;;;;;;;43.53;21.73;;;;;;;;;;5147042;27;20105;-73
2023/12/03 08:08:59;;;;;;;42.97;21.38;;;;;;;;;;5129816;27;20455;-73
2023/12/03 08:11:26;;;;;;;42.40;20.83;;;;;;;;;;5134894;27;20055;-74
2023/12/03 08:13:55;;;;;;;47.40;22.15;;;;;;;;;;5146182;27;20047;-74
2023/12/03 08:16:22;;;;;;;38.63;20.55;;;;;;;;;;5151676;27;20055;-72
2023/12/03 08:18:48;;;;;;;40.53;21.60;;;;;;;;;;5143371;27;20051;-75
2023/12/03 08:21:15;;;;;;;42.83;20.67;;;;;;;;;;5125220;27;20079;-74
2023/12/03 08:23:41;;;;;;;42.13;21.42;;;;;;;;;;5135470;27;20058;-74
2023/12/03 08:26:08;;;;;;;40.40;21.88;;;;;;;;;;5127225;27;20054;-74
2023/12/03 08:28:34;;;;;;;47.38;21.88;;;;;;;;;;5125713;27;20398;-73
2023/12/03 08:31:01;;;;;;;45.40;20.92;;;;;;;;;;5125186;27;20445;-73
2023/12/03 08:33:27;;;;;;;46.05;22.08;;;;;;;;;;5137335;27;20108;-73
2023/12/03 08:35:53;;;;;;;44.72;21.55;;;;;;;;;;5132067;27;20089;-73
2023/12/03 08:38:20;;;;;;;41.60;21.92;;;;;;;;;;5147150;27;20058;-72
2023/12/03 08:40:47;;;;;;;39.58;21.65;;;;;;;;;;5146250;27;20130;-72
2023/12/03 08:43:15;;;;;;;41.63;20.45;;;;;;;;;;5126735;27;20051;-73
2023/12/03 08:45:42;;;;;;;38.42;20.20;;;;;;;;;;5125977;27;20125;-73
2023/12/03 08:48:08;;;;;;;38.47;20.48;;;;;;;;;;5125880;27;20051;-72
2023/12/03 08:50:35;;;;;;;42.10;20.88;;;;;;;;;;5125578;27;20071;-72
2023/12/03 08:53:01;;;;;;;43.17;21.38;;;;;;;;;;5125355;27;20652;-73
2023/12/03 08:55:28;;;;;;;41.03;20.90;;;;;;;;;;5125020;27;20139;-72
2023/12/03 08:57:55;;;;;;;42.47;20.92;;;;;;;;;;5126035;27;20097;-72
2023/12/03 09:00:22;;;;;;;39.63;20.13;;;;;;;;;;5125732;27;20047;-72
2023/12/03 09:02:48;;;;;;;35.22;19.50;;;;;;;;;;5126246;27;20114;-73
2023/12/03 09:05:15;;;;;;;30.58;17.65;;;;;;;;;;5125631;27;20051;-72
2023/12/03 09:07:41;;;;;;;40.92;21.17;;;;;;;;;;5125347;27;20515;-73
2023/12/03 09:10:08;;;;;;;41.10;19.40;;;;;;;;;;5124923;27;20052;-73
2023/12/03 09:12:34;;;;;;;35.10;18.55;;;;;;;;;;5125480;27;20058;-72
2023/12/03 09:15:01;;;;;;;37.35;18.67;;;;;;;;;;5124986;27;20052;-72
2023/12/03 09:17:27;;;;;;;34.45;17.65;;;;;;;;;;5125077;27;20051;-72
2023/12/03 09:19:54;;;;;;;36.08;18.65;;;;;;;;;;5125509;27;20039;-72
2023/12/03 09:22:20;;;;;;;37.53;19.45;;;;;;;;;;5125831;27;20075;-74
2023/12/03 09:24:47;;;;;;;35.03;17.77;;;;;;;;;;5124951;27;20059;-72
2023/12/03 09:27:13;;;;;;;37.78;18.27;;;;;;;;;;5125247;27;20543;-72
2023/12/03 09:29:40;;;;;;;31.25;16.95;;;;;;;;;;5125368;27;20468;-73
2023/12/03 09:32:06;;;;;;;35.55;18.02;;;;;;;;;;5126036;27;20504;-72
2023/12/03 09:34:33;;;;;;;30.67;15.63;;;;;;;;;;5125113;27;20063;-72
2023/12/03 09:36:59;;;;;;;34.00;16.85;;;;;;;;;;5125323;27;20055;-72
2023/12/03 09:39:25;;;;;;;31.35;16.50;;;;;;;;;;5124710;27;20590;-72
2023/12/03 09:41:53;;;;;;;36.45;17.33;;;;;;;;;;5125343;27;20113;-73
2023/12/03 09:44:28;;;;;;;31.58;16.25;;;;;;;;;;5141821;27;20405;-72
2023/12/03 09:46:56;;;;;;;29.55;16.15;;;;;;;;;;5134298;27;20536;-72
2023/12/03 09:49:23;;;;;;;36.47;16.83;;;;;;;;;;5148878;27;20465;-72
2023/12/03 09:51:49;;;;;;;32.72;17.35;;;;;;;;;;5147286;27;20047;-72
2023/12/03 09:54:16;;;;;;;34.40;16.40;;;;;;;;;;5148104;27;20051;-72
2023/12/03 09:56:43;;;;;;;31.25;15.68;;;;;;;;;;5147423;27;20069;-72
2023/12/03 09:59:10;;;;;;;31.05;15.82;;;;;;;;;;5149532;27;20047;-72
2023/12/03 10:01:38;;;;;;;32.08;15.90;;;;;;;;;;5149164;27;20062;-72
2023/12/03 10:04:05;;;;;;;28.45;14.43;;;;;;;;;;5149636;27;20124;-71
2023/12/03 10:06:33;;;;;;;31.10;15.27;;;;;;;;;;5145592;27;20151;-73
2023/12/03 10:09:02;;;;;;;28.30;16.15;;;;;;;;;;5149019;27;20119;-73
2023/12/03 10:11:32;;;;;;;27.88;14.80;;;;;;;;;;5145510;27;20047;-73
2023/12/03 10:14:01;;;;;;;25.70;14.07;;;;;;;;;;5147547;27;20055;-73
2023/12/03 10:16:28;;;;;;;30.52;15.13;;;;;;;;;;5147110;27;20079;-72
2023/12/03 10:18:54;;;;;;;30.67;16.00;;;;;;;;;;5143777;27;20047;-73
2023/12/03 10:21:21;;;;;;;29.73;15.02;;;;;;;;;;5143587;27;20060;-73
2023/12/03 10:23:56;;;;;;;30.40;15.50;;;;;;;;;;5145314;27;20062;-73
2023/12/03 10:26:22;;;;;;;28.48;13.85;;;;;;;;;;5148377;27;20051;-73
2023/12/03 10:28:48;;;;;;;26.92;15.20;;;;;;;;;;5147664;27;20142;-72
2023/12/03 10:31:17;;;;;;;32.78;16.25;;;;;;;;;;5148682;27;20051;-73
2023/12/03 10:33:44;;;;;;;28.20;15.95;;;;;;;;;;5150102;27;20896;-73
2023/12/03 10:36:11;;;;;;;29.10;15.07;;;;;;;;;;5147937;27;20108;-73
2023/12/03 10:38:39;;;;;;;30.60;14.60;;;;;;;;;;5148215;27;20477;-73
2023/12/03 10:41:09;;;;;;;27.27;13.20;;;;;;;;;;5146680;27;20058;-73
2023/12/03 10:43:37;;;;;;;27.65;13.98;;;;;;;;;;5147754;27;20055;-73
2023/12/03 10:46:13;;;;;;;27.48;13.80;;;;;;;;;;5145949;27;20108;-74
2023/12/03 10:48:40;;;;;;;28.42;14.00;;;;;;;;;;5148252;27;20055;-73
2023/12/03 10:51:07;;;;;;;24.13;12.90;;;;;;;;;;5147301;27;20309;-73
2023/12/03 10:53:34;;;;;;;23.20;12.63;;;;;;;;;;5146001;27;20047;-73
2023/12/03 10:56:03;;;;;;;21.13;12.40;;;;;;;;;;5147944;27;20061;-73
2023/12/03 10:58:30;;;;;;;31.05;13.88;;;;;;;;;;5145225;27;20055;-73
2023/12/03 11:01:01;;;;;;;26.02;12.93;;;;;;;;;;5146546;27;20569;-73
2023/12/03 11:03:39;;;;;;;22.40;12.98;;;;;;;;;;5147578;27;20055;-73
2023/12/03 11:06:07;;;;;;;21.85;12.00;;;;;;;;;;5144913;27;20075;-73
2023/12/03 11:08:33;;;;;;;23.13;11.30;;;;;;;;;;5146370;27;20055;-73
2023/12/03 11:11:00;;;;;;;22.92;11.60;;;;;;;;;;5148300;27;20520;-73
2023/12/03 11:13:27;;;;;;;23.73;12.40;;;;;;;;;;5150298;27;20502;-74
2023/12/03 11:16:06;;;;;;;22.98;11.93;;;;;;;;;;5148305;27;20055;-73
2023/12/03 11:18:35;;;;;;;21.33;11.88;;;;;;;;;;5141814;27;20075;-73
2023/12/03 11:21:14;;;;;;;23.02;12.25;;;;;;;;;;5144750;27;20431;-73
2023/12/03 11:24:08;;;;;;;24.35;12.80;;;;;;;;;;5145634;27;20063;-74
2023/12/03 11:26:34;;;;;;;26.88;13.02;;;;;;;;;;5145396;27;20048;-73
2023/12/03 11:29:01;;;;;;;20.23;11.70;;;;;;;;;;5145858;27;20051;-73
2023/12/03 11:31:28;;;;;;;19.88;11.52;;;;;;;;;;5147014;27;20087;-73
2023/12/03 11:33:58;;;;;;;20.83;11.90;;;;;;;;;;5148083;27;20070;-73
2023/12/03 11:36:33;;;;;;;24.00;12.48;;;;;;;;;;5143815;27;20066;-72
2023/12/03 11:39:00;;;;;;;24.20;11.48;;;;;;;;;;5147031;27;20048;-72
2023/12/03 11:41:30;;;;;;;22.17;11.70;;;;;;;;;;5145607;27;20135;-72
2023/12/03 11:44:16;;;;;;;21.88;12.05;;;;;;;;;;5147928;27;20062;-72
2023/12/03 11:47:08;;;;;;;21.33;12.17;;;;;;;;;;5146189;27;20051;-72
2023/12/03 11:49:35;;;;;;;21.20;11.02;;;;;;;;;;5141281;27;20057;-72
2023/12/03 11:52:03;;;;;;;20.92;11.73;;;;;;;;;;5146046;27;20055;-72
2023/12/03 11:54:37;;;;;;;24.58;11.25;;;;;;;;;;5146352;27;20053;-72
2023/12/03 11:57:16;;;;;;;24.23;11.88;;;;;;;;;;5146789;27;20062;-73
2023/12/03 11:59:43;;;;;;;25.30;12.38;;;;;;;;;;5146162;27;20807;-73
2023/12/03 12:02:10;;;;;;;18.77;11.00;;;;;;;;;;5145556;27;20055;-72
2023/12/03 12:04:37;;;;;;;24.80;12.95;;;;;;;;;;5145142;27;20436;-73
2023/12/03 12:07:16;;;;;;;19.30;10.80;;;;;;;;;;5144662;27;20051;-72
2023/12/03 12:09:46;;;;;;;22.17;11.98;;;;;;;;;;5146351;27;20377;-74
2023/12/03 12:12:14;;;;;;;20.55;11.52;;;;;;;;;;5146941;27;20300;-74
2023/12/03 12:14:40;;;;;;;25.08;13.15;;;;;;;;;;5147436;27;20051;-71
2023/12/03 12:17:09;;;;;;;24.27;11.68;;;;;;;;;;5145661;27;20489;-73
2023/12/03 12:19:43;;;;;;;21.80;11.18;;;;;;;;;;5141491;27;20538;-74
2023/12/03 12:22:10;;;;;;;25.83;12.48;;;;;;;;;;5129595;27;20055;-74
2023/12/03 12:24:36;;;;;;;22.90;12.18;;;;;;;;;;5146115;27;20058;-73
2023/12/03 12:27:03;;;;;;;20.80;11.30;;;;;;;;;;5144675;27;20530;-74
2023/12/03 12:29:29;;;;;;;22.95;11.50;;;;;;;;;;5145137;27;20584;-74
2023/12/03 12:31:56;;;;;;;21.60;12.40;;;;;;;;;;5146313;27;20559;-74
2023/12/03 12:34:23;;;;;;;18.15;10.30;;;;;;;;;;5145139;27;20585;-74
2023/12/03 12:37:00;;;;;;;23.27;12.23;;;;;;;;;;5140969;27;20087;-74
2023/12/03 12:39:27;;;;;;;23.35;11.98;;;;;;;;;;5144967;27;20590;-74
2023/12/03 12:41:56;;;;;;;22.08;11.15;;;;;;;;;;5146261;27;20063;-73
2023/12/03 12:44:36;;;;;;;21.70;11.98;;;;;;;;;;5146720;27;20074;-74
2023/12/03 12:47:15;;;;;;;20.23;11.07;;;;;;;;;;5145369;27;20051;-73
2023/12/03 12:49:50;;;;;;;23.73;11.80;;;;;;;;;;5143518;27;20349;-73
2023/12/03 12:52:16;;;;;;;20.92;11.60;;;;;;;;;;5144299;27;20081;-74
2023/12/03 12:54:44;;;;;;;21.52;11.70;;;;;;;;;;5146630;27;20423;-73
2023/12/03 12:57:10;;;;;;;22.27;12.20;;;;;;;;;;5145713;27;20116;-74
2023/12/03 12:59:37;;;;;;;24.30;11.68;;;;;;;;;;5143284;27;20108;-73
2023/12/03 13:02:04;;;;;;;22.42;12.15;;;;;;;;;;5145593;27;20050;-73
2023/12/03 13:04:30;;;;;;;20.80;11.32;;;;;;;;;;5145979;27;20060;-72
2023/12/03 13:06:57;;;;;;;19.90;10.90;;;;;;;;;;5146211;27;20051;-73
2023/12/03 13:09:23;;;;;;;21.48;11.90;;;;;;;;;;5144346;27;20146;-73
2023/12/03 13:11:50;;;;;;;21.73;11.45;;;;;;;;;;5145765;27;20055;-73
2023/12/03 13:14:16;;;;;;;22.80;10.73;;;;;;;;;;5143407;27;20667;-73
2023/12/03 13:16:43;;;;;;;18.27;10.88;;;;;;;;;;5144803;27;20082;-73
2023/12/03 13:19:09;;;;;;;20.42;11.55;;;;;;;;;;5143289;27;20087;-73
2023/12/03 13:21:36;;;;;;;21.73;12.00;;;;;;;;;;5148085;27;20051;-73
2023/12/03 13:24:02;;;;;;;22.17;11.63;;;;;;;;;;5148276;27;20055;-73
2023/12/03 13:26:41;;;;;;;20.83;11.02;;;;;;;;;;5149049;27;20059;-73
2023/12/03 13:29:08;;;;;;;20.48;11.50;;;;;;;;;;5148019;27;20062;-73
2023/12/03 13:31:34;;;;;;;20.52;11.15;;;;;;;;;;5145501;27;20055;-72
2023/12/03 13:34:01;;;;;;;17.55;9.75;;;;;;;;;;5148167;27;20054;-72
2023/12/03 13:36:27;;;;;;;22.33;11.75;;;;;;;;;;5148441;27;20128;-73
2023/12/03 13:38:54;;;;;;;18.83;11.52;;;;;;;;;;5149887;27;20058;-73
2023/12/03 13:41:20;;;;;;;18.95;11.73;;;;;;;;;;5149523;27;20071;-72
2023/12/03 13:43:47;;;;;;;19.80;10.70;;;;;;;;;;5150126;27;20051;-73
2023/12/03 13:46:13;;;;;;;22.10;11.13;;;;;;;;;;5149480;27;20538;-73
2023/12/03 13:48:40;;;;;;;20.42;11.10;;;;;;;;;;5145641;27;20067;-73
2023/12/03 13:51:06;;;;;;;23.63;11.60;;;;;;;;;;5146570;27;20141;-73
2023/12/03 13:53:33;;;;;;;17.77;10.32;;;;;;;;;;5144946;27;20135;-73
2023/12/03 13:55:59;;;;;;;22.13;10.90;;;;;;;;;;5149707;27;20378;-73
2023/12/03 13:58:26;;;;;;;18.35;11.10;;;;;;;;;;5147002;27;20578;-73
2023/12/03 14:00:52;;;;;;;18.33;10.55;;;;;;;;;;5144170;27;20508;-73
2023/12/03 14:03:19;;;;;;;20.05;10.48;;;;;;;;;;5150135;27;20055;-73
2023/12/03 14:05:46;;;;;;;18.95;9.68;;;;;;;;;;5150491;27;20228;-73
2023/12/03 14:08:12;;;;;;;19.83;10.68;;;;;;;;;;5148184;27;20104;-73
2023/12/03 14:10:38;;;;;;;17.50;9.77;;;;;;;;;;5147293;27;20104;-73
2023/12/03 14:13:06;;;;;;;16.83;9.45;;;;;;;;;;5148488;27;20050;-72
2023/12/03 14:15:32;;;;;;;18.55;10.27;;;;;;;;;;5147557;27;20055;-73